createdAt,value
2022-08-31T00:00:14.997Z,100727.22
2022-08-31T00:03:00.506Z,100722.66
2022-08-31T00:05:28.242Z,100729.00
2022-08-31T00:07:55.694Z,100727.75
2022-08-31T00:10:31.858Z,100735.75
2022-08-31T00:13:02.956Z,100733.69
2022-08-31T00:15:30.692Z,100728.56
2022-08-31T00:17:58.266Z,100734.16
2022-08-31T00:20:33.665Z,100734.13
2022-08-31T00:23:09.992Z,100727.75
2022-08-31T00:25:40.682Z,100732.06
2022-08-31T00:28:09.495Z,100754.53
2022-08-31T00:30:37.043Z,100755.56
2022-08-31T00:33:05.619Z,100763.78
2022-08-31T00:35:36.136Z,100767.88
2022-08-31T00:38:06.363Z,100751.50
2022-08-31T00:40:34.207Z,100760.75
2022-08-31T00:43:13.203Z,100760.13
2022-08-31T00:45:40.420Z,100765.69
2022-08-31T00:48:07.382Z,100758.50
2022-08-31T00:50:34.576Z,100751.72
2022-08-31T00:53:02.056Z,100751.50
2022-08-31T00:55:37.090Z,100754.38
2022-08-31T00:58:09.736Z,100750.44
2022-08-31T01:00:38.058Z,100752.50
2022-08-31T01:03:07.945Z,100747.78
2022-08-31T01:05:36.111Z,100747.78
2022-08-31T01:08:04.461Z,100743.91
2022-08-31T01:10:39.141Z,100746.19
2022-08-31T01:13:07.200Z,100749.28
2022-08-31T01:15:36.765Z,100748.03
2022-08-31T01:18:06.421Z,100748.25
2022-08-31T01:21:11.093Z,100752.13
2022-08-31T01:23:43.308Z,100751.03
2022-08-31T01:26:15.247Z,100763.16
2022-08-31T01:28:42.363Z,100755.78
2022-08-31T01:31:23.723Z,100761.25
2022-08-31T01:33:50.979Z,100757.00
2022-08-31T01:36:19.057Z,100762.91
2022-08-31T01:38:46.718Z,100764.81
2022-08-31T01:41:19.924Z,100769.13
2022-08-31T01:43:46.810Z,100771.00
2022-08-31T01:46:14.646Z,100767.41
2022-08-31T01:48:44.446Z,100760.41
2022-08-31T01:51:15.443Z,100764.94
2022-08-31T01:53:45.435Z,100767.06
2022-08-31T01:56:38.907Z,100759.72
2022-08-31T01:59:08.655Z,100760.38
2022-08-31T02:01:40.811Z,100758.00
2022-08-31T02:04:11.047Z,100756.50
2022-08-31T02:06:41.841Z,100758.69
2022-08-31T02:09:09.495Z,100758.28
2022-08-31T02:11:36.732Z,100753.66
2022-08-31T02:14:06.075Z,100751.53
2022-08-31T02:16:33.058Z,100757.81
2022-08-31T02:19:00.015Z,100756.00
2022-08-31T02:21:27.088Z,100764.69
2022-08-31T02:23:54.381Z,100751.53
2022-08-31T02:26:23.431Z,100762.44
2022-08-31T02:28:50.293Z,100763.94
2022-08-31T02:31:17.746Z,100762.72
2022-08-31T02:33:44.744Z,100761.69
2022-08-31T02:36:12.269Z,100766.38
2022-08-31T02:38:40.281Z,100768.50
2022-08-31T02:41:07.731Z,100773.19
2022-08-31T02:43:35.253Z,100770.88
2022-08-31T02:46:02.361Z,100772.63
2022-08-31T02:48:29.252Z,100778.53
2022-08-31T02:51:08.216Z,100766.50
2022-08-31T02:53:36.960Z,100775.00
2022-08-31T02:56:05.642Z,100781.06
2022-08-31T02:58:32.554Z,100780.22
2022-08-31T03:00:59.443Z,100781.41
2022-08-31T03:03:26.308Z,100782.53
2022-08-31T03:05:53.238Z,100785.09
2022-08-31T03:08:20.096Z,100778.56
2022-08-31T03:10:47.050Z,100775.81
2022-08-31T03:13:14.070Z,100782.16
2022-08-31T03:15:43.601Z,100773.97
2022-08-31T03:18:10.597Z,100778.44
2022-08-31T03:20:37.912Z,100773.97
2022-08-31T03:23:05.404Z,100770.13
2022-08-31T03:25:32.828Z,100762.72
2022-08-31T03:27:59.681Z,100768.13
2022-08-31T03:30:29.697Z,100772.72
2022-08-31T03:32:59.306Z,100774.63
2022-08-31T03:35:30.512Z,100779.06
2022-08-31T03:37:57.501Z,100783.78
2022-08-31T03:40:24.720Z,100788.69
2022-08-31T03:42:51.688Z,100779.31
2022-08-31T03:45:18.556Z,100783.53
2022-08-31T03:47:45.828Z,100783.09
2022-08-31T03:50:13.271Z,100786.75
2022-08-31T03:52:40.143Z,100782.78
2022-08-31T03:55:08.619Z,100788.59
2022-08-31T03:57:35.713Z,100790.22
2022-08-31T04:00:04.802Z,100790.78
2022-08-31T04:02:36.827Z,100791.53
2022-08-31T04:05:05.546Z,100792.72
2022-08-31T04:07:42.637Z,100794.00
2022-08-31T04:10:12.030Z,100799.84
2022-08-31T04:12:39.229Z,100801.97
2022-08-31T04:15:08.491Z,100803.63
2022-08-31T04:17:35.626Z,100806.66
2022-08-31T04:20:02.751Z,100805.19
2022-08-31T04:22:52.149Z,100807.38
2022-08-31T04:25:21.469Z,100803.81
2022-08-31T04:27:50.228Z,100805.28
2022-08-31T04:30:20.839Z,100814.44
2022-08-31T04:32:48.722Z,100810.84
2022-08-31T04:35:16.231Z,100811.31
2022-08-31T04:37:46.923Z,100811.75
2022-08-31T04:40:20.255Z,100814.63
2022-08-31T04:42:52.322Z,100823.50
2022-08-31T04:45:19.182Z,100816.88
2022-08-31T04:47:46.109Z,100820.03
2022-08-31T04:50:15.340Z,100816.88
2022-08-31T04:52:43.689Z,100826.91
2022-08-31T04:55:12.143Z,100821.47
2022-08-31T04:57:40.919Z,100825.78
2022-08-31T05:00:09.847Z,100816.25
2022-08-31T05:02:39.463Z,100819.66
2022-08-31T05:05:07.086Z,100825.19
2022-08-31T05:07:33.968Z,100826.63
2022-08-31T05:10:00.939Z,100833.25
2022-08-31T05:12:30.177Z,100836.19
2022-08-31T05:14:57.120Z,100839.78
2022-08-31T05:17:24.047Z,100839.94
2022-08-31T05:19:52.712Z,100837.19
2022-08-31T05:22:19.655Z,100845.38
2022-08-31T05:24:48.089Z,100853.34
2022-08-31T05:27:15.164Z,100853.97
2022-08-31T05:29:42.313Z,100845.47
2022-08-31T05:32:09.217Z,100854.09
2022-08-31T05:34:36.291Z,100843.88
2022-08-31T05:37:03.228Z,100844.63
2022-08-31T05:39:31.971Z,100844.09
2022-08-31T05:41:59.004Z,100858.66
2022-08-31T05:44:29.215Z,100859.94
2022-08-31T05:47:03.446Z,100867.47
2022-08-31T05:49:32.219Z,100865.38
2022-08-31T05:52:01.106Z,100866.09
2022-08-31T05:54:28.435Z,100865.91
2022-08-31T05:56:55.343Z,100866.50
2022-08-31T05:59:30.972Z,100876.31
2022-08-31T06:01:58.849Z,100869.34
2022-08-31T06:04:27.339Z,100873.25
2022-08-31T06:06:54.790Z,100877.47
2022-08-31T06:09:21.855Z,100876.16
2022-08-31T06:11:48.836Z,100879.09
2022-08-31T06:14:15.875Z,100879.41
2022-08-31T06:16:44.610Z,100883.78
2022-08-31T06:19:12.226Z,100879.22
2022-08-31T06:21:49.832Z,100882.50
2022-08-31T06:24:18.987Z,100884.38
2022-08-31T06:26:55.420Z,100883.53
2022-08-31T06:29:25.186Z,100895.38
2022-08-31T06:31:52.119Z,100898.84
2022-08-31T06:34:20.286Z,100902.16
2022-08-31T06:36:48.450Z,100906.00
2022-08-31T06:39:17.675Z,100899.31
2022-08-31T06:41:44.539Z,100901.03
2022-08-31T06:44:13.880Z,100904.28
2022-08-31T06:46:42.313Z,100905.38
2022-08-31T06:49:15.623Z,100904.97
2022-08-31T06:51:43.830Z,100903.53
2022-08-31T06:54:28.965Z,100911.97
2022-08-31T06:56:58.667Z,100913.53
2022-08-31T06:59:29.344Z,100913.88
2022-08-31T07:01:59.157Z,100910.50
2022-08-31T07:04:27.503Z,100917.47
2022-08-31T07:06:54.360Z,100920.88
2022-08-31T07:09:21.235Z,100929.22
2022-08-31T07:11:52.286Z,100930.69
2022-08-31T07:14:24.044Z,100930.88
2022-08-31T07:16:53.977Z,100928.38
2022-08-31T07:19:22.036Z,100934.00
2022-08-31T07:22:01.242Z,100932.81
2022-08-31T07:24:33.227Z,100937.28
2022-08-31T07:27:09.916Z,100948.78
2022-08-31T07:29:41.254Z,100940.78
2022-08-31T07:32:10.860Z,100947.75
2022-08-31T07:34:38.609Z,100948.97
2022-08-31T07:37:25.837Z,100954.44
2022-08-31T07:40:12.601Z,100959.41
2022-08-31T07:42:44.386Z,100964.72
2022-08-31T07:45:23.164Z,100961.03
2022-08-31T07:47:52.083Z,100976.28
2022-08-31T07:50:21.413Z,100978.34
2022-08-31T07:52:53.892Z,100978.63
2022-08-31T07:55:24.065Z,100976.28
2022-08-31T07:57:54.666Z,100987.63
2022-08-31T08:00:28.486Z,100985.06
2022-08-31T08:02:56.633Z,100997.44
2022-08-31T08:05:28.890Z,100999.78
2022-08-31T08:08:09.346Z,100997.13
2022-08-31T08:10:42.362Z,101013.84
2022-08-31T08:13:12.442Z,101007.13
2022-08-31T08:15:41.707Z,101007.81
2022-08-31T08:18:10.713Z,101012.44
2022-08-31T08:20:38.996Z,101004.97
2022-08-31T08:23:15.626Z,101018.56
2022-08-31T08:25:47.274Z,101014.28
2022-08-31T08:28:38.657Z,101018.88
2022-08-31T08:31:11.749Z,101033.16
2022-08-31T08:33:39.381Z,101022.41
2022-08-31T08:36:08.369Z,101031.22
2022-08-31T08:38:42.336Z,101038.81
2022-08-31T08:41:19.089Z,101038.53
2022-08-31T08:43:53.157Z,101042.66
2022-08-31T08:46:47.778Z,101037.81
2022-08-31T08:49:19.135Z,101049.06
2022-08-31T08:51:50.592Z,101053.22
2022-08-31T08:54:44.046Z,101044.47
2022-08-31T08:57:36.990Z,101046.59
2022-08-31T09:00:17.932Z,101043.50
2022-08-31T09:02:50.660Z,101039.00
2022-08-31T09:05:59.112Z,101044.97
2022-08-31T09:08:58.914Z,101039.97
2022-08-31T09:11:52.530Z,101043.94
2022-08-31T09:14:59.056Z,101038.34
2022-08-31T09:17:34.617Z,101044.44
2022-08-31T09:20:03.998Z,101040.97
2022-08-31T09:22:50.586Z,101039.31
2022-08-31T09:25:45.286Z,101038.34
2022-08-31T09:28:15.227Z,101040.31
2022-08-31T09:30:52.074Z,101044.16
2022-08-31T09:33:33.327Z,101050.97
2022-08-31T09:36:20.038Z,101050.78
2022-08-31T09:38:47.852Z,101049.28
2022-08-31T09:41:38.054Z,101052.94
2022-08-31T09:44:26.139Z,101053.41
2022-08-31T09:46:56.794Z,101055.22
2022-08-31T09:49:38.171Z,101039.63
2022-08-31T09:52:49.078Z,101041.97
2022-08-31T09:55:24.778Z,101035.25
2022-08-31T09:58:03.087Z,101040.75
2022-08-31T10:00:41.193Z,101035.25
2022-08-31T10:03:30.537Z,101033.84
2022-08-31T10:05:57.479Z,101032.81
2022-08-31T10:08:58.049Z,101027.19
2022-08-31T10:11:31.140Z,101039.25
2022-08-31T10:14:16.847Z,101031.66
2022-08-31T10:17:13.085Z,101038.59
2022-08-31T10:20:08.839Z,101037.75
2022-08-31T10:22:41.861Z,101041.41
2022-08-31T10:25:32.969Z,101037.75
2022-08-31T10:28:15.349Z,101034.38
2022-08-31T10:30:51.917Z,101035.97
2022-08-31T10:33:51.775Z,101038.03
2022-08-31T10:36:20.033Z,101031.66
2022-08-31T10:38:49.624Z,101035.38
2022-08-31T10:41:16.367Z,101034.28
2022-08-31T10:43:46.581Z,101037.53
2022-08-31T10:46:15.069Z,101040.19
2022-08-31T10:48:47.318Z,101035.63
2022-08-31T10:51:31.542Z,101025.78
2022-08-31T10:54:16.221Z,101024.47
2022-08-31T10:57:00.827Z,101025.97
2022-08-31T11:00:31.180Z,101027.78
2022-08-31T11:03:21.876Z,101029.22
2022-08-31T11:06:34.153Z,101027.09
2022-08-31T11:09:23.757Z,101035.03
2022-08-31T11:12:06.941Z,101034.16
2022-08-31T11:14:53.272Z,101044.31
2022-08-31T11:17:27.045Z,101045.94
2022-08-31T11:20:28.413Z,101052.91
2022-08-31T11:23:15.196Z,101044.56
2022-08-31T11:26:27.867Z,101048.00
2022-08-31T11:29:12.889Z,101041.50
2022-08-31T11:31:40.385Z,101043.59
2022-08-31T11:34:25.668Z,101046.59
2022-08-31T11:37:04.936Z,101041.25
2022-08-31T11:39:35.490Z,101037.31
2022-08-31T11:42:28.074Z,101026.47
2022-08-31T11:45:32.369Z,101023.00
2022-08-31T11:48:00.530Z,101023.22
2022-08-31T11:50:36.586Z,101014.91
2022-08-31T11:53:44.388Z,101017.84
2022-08-31T11:56:15.131Z,101005.72
2022-08-31T11:58:51.912Z,101015.00
2022-08-31T12:01:18.946Z,101018.31
2022-08-31T12:04:03.136Z,101007.78
2022-08-31T12:06:36.164Z,101022.53
2022-08-31T12:09:41.850Z,101021.56
2022-08-31T12:13:19.478Z,101024.94
2022-08-31T12:16:30.061Z,101030.59
2022-08-31T12:19:51.334Z,101029.81
2022-08-31T12:23:13.344Z,101033.38
2022-08-31T12:26:21.621Z,101031.50
2022-08-31T12:29:21.719Z,101020.81
2022-08-31T12:32:29.876Z,101020.31
2022-08-31T12:35:04.420Z,101017.06
2022-08-31T12:37:37.818Z,101013.06
2022-08-31T12:40:24.215Z,101005.78
2022-08-31T12:43:03.371Z,101011.72
2022-08-31T12:46:01.971Z,101009.38
2022-08-31T12:48:52.863Z,101005.00
2022-08-31T12:51:40.583Z,101010.94
2022-08-31T12:54:15.433Z,101006.53
2022-08-31T12:57:27.164Z,101004.53
2022-08-31T13:00:10.467Z,100998.53
2022-08-31T13:02:44.739Z,101000.38
2022-08-31T13:05:35.019Z,100993.41
2022-08-31T13:08:19.669Z,100991.91
2022-08-31T13:10:46.697Z,100996.63
2022-08-31T13:13:27.215Z,100976.75
2022-08-31T13:16:07.898Z,100975.09
2022-08-31T13:18:36.694Z,100979.75
2022-08-31T13:21:08.209Z,100980.75
2022-08-31T13:23:46.488Z,100976.22
2022-08-31T13:26:25.740Z,100972.94
2022-08-31T13:28:59.908Z,100959.41
2022-08-31T13:31:35.295Z,100950.84
2022-08-31T13:34:09.769Z,100956.94
2022-08-31T13:36:47.765Z,100952.84
2022-08-31T13:39:42.702Z,100950.59
2022-08-31T13:42:42.769Z,100946.34
2022-08-31T13:45:31.816Z,100946.34
2022-08-31T13:48:12.339Z,100952.59
2022-08-31T13:50:56.637Z,100947.06
2022-08-31T13:53:42.814Z,100942.00
2022-08-31T13:56:56.151Z,100943.91
2022-08-31T13:59:26.566Z,100949.94
2022-08-31T14:02:07.808Z,100946.44
2022-08-31T14:04:49.435Z,100947.41
2022-08-31T14:07:38.920Z,100941.41
2022-08-31T14:10:26.153Z,100932.38
2022-08-31T14:13:13.860Z,100935.75
2022-08-31T14:16:02.049Z,100936.91
2022-08-31T14:18:40.073Z,100929.13
2022-08-31T14:21:20.620Z,100927.72
2022-08-31T14:24:02.355Z,100931.03
2022-08-31T14:26:34.007Z,100928.00
2022-08-31T14:29:12.242Z,100925.22
2022-08-31T14:31:52.092Z,100921.72
2022-08-31T14:34:34.764Z,100917.66
2022-08-31T14:37:07.425Z,100915.56
2022-08-31T14:39:43.112Z,100910.63
2022-08-31T14:42:19.704Z,100907.50
2022-08-31T14:45:03.892Z,100903.47
2022-08-31T14:47:36.063Z,100895.75
2022-08-31T14:50:07.220Z,100898.75
2022-08-31T14:52:37.110Z,100901.66
2022-08-31T14:55:08.974Z,100889.59
2022-08-31T14:57:36.755Z,100888.34
2022-08-31T15:00:07.007Z,100885.03
2022-08-31T15:02:35.006Z,100889.72
2022-08-31T15:05:06.333Z,100885.13
2022-08-31T15:07:37.686Z,100883.19
2022-08-31T15:10:07.808Z,100888.66
2022-08-31T15:12:35.734Z,100886.34
2022-08-31T15:15:02.927Z,100883.31
2022-08-31T15:17:36.072Z,100887.19
2022-08-31T15:20:05.937Z,100886.34
2022-08-31T15:22:35.020Z,100884.47
2022-08-31T15:25:02.103Z,100887.06
2022-08-31T15:27:31.328Z,100878.72
2022-08-31T15:30:07.541Z,100884.84
2022-08-31T15:32:39.609Z,100876.47
2022-08-31T15:35:07.524Z,100877.56
2022-08-31T15:37:34.413Z,100877.19
2022-08-31T15:40:05.070Z,100880.50
2022-08-31T15:42:38.229Z,100875.22
2022-08-31T15:45:07.027Z,100882.66
2022-08-31T15:47:57.300Z,100878.16
2022-08-31T15:50:31.519Z,100872.63
2022-08-31T15:53:09.531Z,100878.59
2022-08-31T15:55:40.107Z,100865.78
2022-08-31T15:58:08.366Z,100866.97
2022-08-31T16:00:36.551Z,100864.38
2022-08-31T16:03:03.816Z,100852.25
2022-08-31T16:05:35.529Z,100852.72
2022-08-31T16:08:02.909Z,100855.03
2022-08-31T16:10:31.009Z,100850.56
2022-08-31T16:12:58.177Z,100846.09
2022-08-31T16:15:26.239Z,100842.22
2022-08-31T16:17:57.411Z,100841.16
2022-08-31T16:20:27.214Z,100837.44
2022-08-31T16:22:54.396Z,100840.09
2022-08-31T16:25:21.333Z,100828.44
2022-08-31T16:27:48.197Z,100822.84
2022-08-31T16:30:15.984Z,100817.66
2022-08-31T16:32:42.932Z,100816.00
2022-08-31T16:35:10.630Z,100816.00
2022-08-31T16:37:37.764Z,100819.50
2022-08-31T16:40:05.804Z,100816.22
2022-08-31T16:42:32.764Z,100810.38
2022-08-31T16:45:02.475Z,100817.91
2022-08-31T16:47:29.833Z,100816.69
2022-08-31T16:49:58.276Z,100819.94
2022-08-31T16:52:28.631Z,100816.81
2022-08-31T16:54:59.354Z,100817.81
2022-08-31T16:57:30.175Z,100822.22
2022-08-31T16:59:58.364Z,100819.53
2022-08-31T17:02:26.382Z,100809.84
2022-08-31T17:04:54.717Z,100818.63
2022-08-31T17:07:24.185Z,100823.13
2022-08-31T17:09:56.632Z,100828.03
2022-08-31T17:12:25.932Z,100820.09
2022-08-31T17:14:53.319Z,100826.84
2022-08-31T17:17:26.473Z,100835.06
2022-08-31T17:19:58.613Z,100837.50
2022-08-31T17:22:32.526Z,100823.97
2022-08-31T17:25:04.369Z,100831.91
2022-08-31T17:27:33.620Z,100829.50
2022-08-31T17:30:04.935Z,100834.56
2022-08-31T17:32:32.243Z,100843.50
2022-08-31T17:34:59.213Z,100839.91
2022-08-31T17:37:36.040Z,100837.72
2022-08-31T17:40:08.061Z,100843.38
2022-08-31T17:42:35.841Z,100841.28
2022-08-31T17:45:05.676Z,100844.31
2022-08-31T17:47:33.218Z,100844.94
2022-08-31T17:50:00.445Z,100843.47
2022-08-31T17:52:28.158Z,100851.81
2022-08-31T17:54:55.250Z,100851.31
2022-08-31T17:57:26.012Z,100863.53
2022-08-31T17:59:54.778Z,100856.94
2022-08-31T18:02:32.340Z,100850.91
2022-08-31T18:05:00.932Z,100853.00
2022-08-31T18:07:28.136Z,100855.34
2022-08-31T18:09:55.043Z,100857.34
2022-08-31T18:12:22.738Z,100865.16
2022-08-31T18:14:49.995Z,100858.56
2022-08-31T18:17:18.223Z,100871.88
2022-08-31T18:19:45.385Z,100867.94
2022-08-31T18:22:14.330Z,100871.69
2022-08-31T18:24:43.016Z,100865.44
2022-08-31T18:27:14.966Z,100868.09
2022-08-31T18:29:43.098Z,100874.72
2022-08-31T18:32:10.771Z,100871.50
2022-08-31T18:34:44.081Z,100874.91
2022-08-31T18:37:12.802Z,100883.16
2022-08-31T18:39:59.613Z,100880.13
2022-08-31T18:42:46.649Z,100887.09
2022-08-31T18:45:16.609Z,100894.28
2022-08-31T18:48:20.863Z,100897.03
2022-08-31T18:50:44.769Z,100893.63
2022-08-31T18:53:15.006Z,100895.63
2022-08-31T18:55:42.615Z,100899.56
2022-08-31T18:58:09.783Z,100895.31
2022-08-31T19:00:36.894Z,100900.75
2022-08-31T19:03:04.499Z,100891.28
2022-08-31T19:05:32.707Z,100895.97
2022-08-31T19:08:00.477Z,100889.50
2022-08-31T19:10:28.403Z,100884.19
2022-08-31T19:12:55.908Z,100886.56
2022-08-31T19:15:25.479Z,100893.50
2022-08-31T19:17:58.855Z,100901.44
2022-08-31T19:20:29.254Z,100896.44
2022-08-31T19:22:56.396Z,100893.69
2022-08-31T19:25:24.453Z,100895.59
2022-08-31T19:27:51.944Z,100899.91
2022-08-31T19:30:24.394Z,100895.06
2022-08-31T19:32:53.639Z,100902.66
2022-08-31T19:35:20.699Z,100902.03
2022-08-31T19:37:51.901Z,100902.13
2022-08-31T19:40:19.370Z,100900.50
2022-08-31T19:43:43.006Z,100899.75
2022-08-31T19:45:43.605Z,100892.88
2022-08-31T19:48:12.752Z,100892.56
2022-08-31T19:50:42.395Z,100896.25
2022-08-31T19:53:12.107Z,100895.78
2022-08-31T19:55:50.501Z,100888.69
2022-08-31T19:58:26.535Z,100892.38
2022-08-31T20:01:00.777Z,100891.03
2022-08-31T20:03:31.088Z,100890.78
2022-08-31T20:05:59.383Z,100887.81
2022-08-31T20:08:26.272Z,100892.00
2022-08-31T20:10:53.208Z,100899.97
2022-08-31T20:13:22.809Z,100892.88
2022-08-31T20:15:50.924Z,100895.81
2022-08-31T20:18:18.559Z,100901.34
2022-08-31T20:20:48.419Z,100889.78
2022-08-31T20:23:18.764Z,100896.47
2022-08-31T20:25:49.191Z,100890.00
2022-08-31T20:28:17.444Z,100889.66
2022-08-31T20:30:45.167Z,100890.84
2022-08-31T20:33:12.312Z,100887.19
2022-08-31T20:35:47.277Z,100893.53
2022-08-31T20:38:17.027Z,100891.41
2022-08-31T20:40:47.949Z,100888.22
2022-08-31T20:43:15.190Z,100889.41
2022-08-31T20:45:42.662Z,100884.56
2022-08-31T20:48:29.087Z,100889.78
2022-08-31T20:50:56.854Z,100895.47
2022-08-31T20:53:42.379Z,100899.28
2022-08-31T20:56:14.874Z,100900.63
2022-08-31T20:58:48.273Z,100908.41
2022-08-31T21:01:16.029Z,100897.47
2022-08-31T21:03:43.404Z,100911.22
2022-08-31T21:06:12.209Z,100903.44
2022-08-31T21:08:42.437Z,100903.44
2022-08-31T21:11:15.248Z,100907.31
2022-08-31T21:13:43.733Z,100904.88
2022-08-31T21:16:10.936Z,100902.72
2022-08-31T21:18:38.746Z,100902.38
2022-08-31T21:21:09.559Z,100908.19
2022-08-31T21:23:38.295Z,100915.19
2022-08-31T21:26:08.674Z,100913.22
2022-08-31T21:28:38.690Z,100909.03
2022-08-31T21:31:16.573Z,100905.91
2022-08-31T21:33:47.046Z,100908.38
2022-08-31T21:36:15.991Z,100907.91
2022-08-31T21:38:45.037Z,100900.94
2022-08-31T21:41:14.912Z,100910.69
2022-08-31T21:43:41.827Z,100907.53
2022-08-31T21:46:21.772Z,100903.56
2022-08-31T21:48:51.167Z,100909.69
2022-08-31T21:51:25.732Z,100909.03
2022-08-31T21:53:56.384Z,100914.66
2022-08-31T21:56:26.827Z,100919.00
2022-08-31T21:58:54.116Z,100914.19
2022-08-31T22:01:22.972Z,100916.81
2022-08-31T22:03:57.458Z,100913.00
2022-08-31T22:06:30.822Z,100916.84
2022-08-31T22:09:02.085Z,100915.56
2022-08-31T22:11:35.039Z,100916.72
2022-08-31T22:14:03.650Z,100922.34
2022-08-31T22:16:31.985Z,100920.03
2022-08-31T22:19:01.233Z,100921.88
2022-08-31T22:21:33.106Z,100919.56
2022-08-31T22:24:07.637Z,100921.53
2022-08-31T22:26:42.717Z,100923.84
2022-08-31T22:29:13.423Z,100921.72
2022-08-31T22:31:41.784Z,100928.81
2022-08-31T22:34:11.175Z,100925.50
2022-08-31T22:36:38.455Z,100923.38
2022-08-31T22:39:10.810Z,100924.00
2022-08-31T22:41:41.141Z,100927.66
2022-08-31T22:44:16.312Z,100931.97
2022-08-31T22:46:44.643Z,100938.44
2022-08-31T22:49:11.832Z,100937.94
2022-08-31T22:51:41.389Z,100930.47
2022-08-31T22:54:10.495Z,100935.97
2022-08-31T22:56:39.722Z,100932.66
2022-08-31T22:59:14.280Z,100931.47
2022-08-31T23:01:50.532Z,100938.91
2022-08-31T23:04:21.772Z,100935.59
2022-08-31T23:06:51.660Z,100926.69
2022-08-31T23:09:21.625Z,100930.66
2022-08-31T23:11:51.671Z,100932.31
2022-08-31T23:14:22.910Z,100927.50
2022-08-31T23:16:57.848Z,100931.66
2022-08-31T23:19:36.907Z,100921.53
2022-08-31T23:22:10.519Z,100926.03
2022-08-31T23:24:46.262Z,100917.53
2022-08-31T23:27:17.261Z,100927.63
2022-08-31T23:29:49.235Z,100919.34
2022-08-31T23:32:21.940Z,100924.69
2022-08-31T23:34:52.511Z,100924.69
2022-08-31T23:37:25.910Z,100922.34
2022-08-31T23:39:55.967Z,100919.03
2022-08-31T23:42:26.840Z,100917.69
2022-08-31T23:44:54.855Z,100909.09
2022-08-31T23:47:26.809Z,100908.75
2022-08-31T23:49:54.836Z,100906.59
2022-08-31T23:52:28.179Z,100906.75
2022-08-31T23:54:59.640Z,100902.13
2022-08-31T23:57:32.369Z,100907.91
